Buckland, AK

07:38 PM AKST del 09 Febbraio 2016 (GMT -0900)
Buckland | | Change Station
CLOSE
Current Station
Aeroporto
Location: Buckland,
Altitudine: 30 ft
Stazioni meteo nelle vicinanze

Alt. 30 ft 65.98 °N, 161.15 °W | Updated 2 days ago

Clear
8 °F
Sembra -3 °F
N
7
Vento Variabile Vento da ESE
Gusts mph

Oggi
Massima -- | Minima -- °F
--% Possibilità di precip.
Ieri
Massima -- | Minima -- °F
Precip. -- in
Pressione 29.94 in
Visibilità 3.0 miglia
Nuvole Nubi sparse 2600 ft
Molto nuvoloso 3100 ft
Coperto 5000 ft
Raffreddamento del vento -3 °F
Punto di rugiada 1 °F
Umidità 74%
Piovosità 0.00 in
Spessore del manto nevoso Non disponibile.
10:12 AM 5:46 PM
Luna crescente, 3% visible
METAR PABL 071833Z 16009KT 3SM SCT026 BKN031 OVC050 M07/M09 A2994 RMK VIA PHONE
Pressione 29.94 in
Visibilità 3.0 miglia
Nuvole Nubi sparse 2600 ft
Molto nuvoloso 3100 ft
Coperto 5000 ft
Raffreddamento del vento -3 °F
Punto di rugiada 1 °F
Umidità 74%
Piovosità 0.00 in
Spessore del manto nevoso Non disponibile.
10:12 AM 5:46 PM
Luna crescente, 3% visible
METAR PABL 071833Z 16009KT 3SM SCT026 BKN031 OVC050 M07/M09 A2994 RMK VIA PHONE

10-Day Weather Forecast

Almanac

Astronomia

Feb. 09, 2016 Alba Tramonto
Ora attuale
Crepuscolo civile
Crepuscolo nautico
Crepuscolo astronomico
Luna
Estensione della luce visibile
Lunghezza del giorno
Tomorrow will be .
, % of the Moon is Illuminated

Gli estremi di oggi

State Highs State Lows

Community

WunderPhotos

Upload Photos

1,891,805 foto caricate!

WunderBlog® & News

Nearby

Qualità dell'aria

  Qualità dell'aria Indice AQ Inquinante
Not available.

Profondità neve

Stazione Profondità Altitudine

Attività sismica

Città  Distanza Mag. Data & Ora
Minimo Magnitudo Mostrato è 2.5.

Temperature delle acque costiere

Località Temperatura

Stations

Stazioni meteo nelle vicinanze

Ubicazione della stazione Temp. Raffreddamento del vento Punto di rugiada Umidità Vento Precip. Alt. Aggiornato Tipo
                   

Watches & Warnings

There are currently no watches in effect.